Terminal Aerodrome Forecast
Issued by NWS

Home | Current Version | Previous Version | Text Only | Print | Product List | Glossary On
Versions: 1 2 3 4 5 6 7 8 9 10 11 12 13 14 15 16 17 18 19 20 21
000
FTUS41 KCLE 211700
TAFFDY
TAF
KFDY 211731Z 2118/2218 17004KT P6SM BKN015 OVC025
     FM211900 16005KT P6SM BKN025
     FM212100 14005KT P6SM SCT025 OVC250
     FM220600 11006KT 5SM BR BKN250
      TEMPO 2210/2214 2SM BR
     FM221500 14008KT P6SM SCT025 BKN150=

USA.gov is the U.S. government's official web portal to all federal, state and local government web resources and services.